Terminal Aerodrome Forecast
Issued by NWS

Home | Current Version | Previous Version | Text Only | Print | Product List | Glossary On
Versions: 1 2 3 4 5 6 7 8 9 10 11 12 13 14 15 16 17 18 19 20 21 22 23 24 25 26
299
FTUS46 KPDT 151720
TAFRDM
TAF
KRDM 151720Z 1518/1618 VRB03KT P6SM FEW100 OVC150
     FM152100 31007KT P6SM -RA SCT025 OVC060
     FM160600 32011KT P6SM SCT030 BKN050=

USA.gov is the U.S. government's official web portal to all federal, state and local government web resources and services.